Woodbridge, Virginia
Current Conditions -  °F | °C
As of 8:58 AM on Thursday 30 Oct 2014 (Local Time) from KDAA Reporting Station
Clear Clear  
Wind Chill: 45°   Ceiling: Unl
Heat Index: 48°   Visibility: 10mi
Dew Point: 40°   Wind: 8mph
Humidity: 74%   Direction: 310°NW
Pressure: 30.08"   Gusts: NA
Location:  38.66°N, 77.25°W
Report Text: KDAA 301258Z AUTO 31007KT 10SM CLR 09/05 A3008 RMK AO2 SLP189 T00900045
Loading
Personal Weather Stations






























Interactive Weather Map
Tropical Storm Tracking
New forecast layout! Learn more

10-Day Weather Forecast

Advertisements
Track Severe Weather on mobile